Terminal Aerodrome Forecast
Issued by NWS Twin Cities, MN

Home | Current Version | Previous Version | Graphics & Text | Print | Product List | Glossary On
Versions: 1 2 3 4 5 6 7 8 9 10 11 12 13 14 15 16 17
000
FTUS43 KMPX 200500
TAFEAU
TAF
KEAU 200530Z 2006/2106 VRB04KT P6SM SKC
     FM200900 31006KT P6SM SKC
     FM201500 33010KT P6SM BKN050
     FM202100 35007KT P6SM SCT050 SCT250
     FM210000 02005KT P6SM SCT250=

USA.gov is the U.S. government's official web portal to all federal, state and local government web resources and services.